createdAt,value
2023-03-06T00:02:04.359Z,87.30
2023-03-06T00:04:58.357Z,87.36
2023-03-06T00:07:45.353Z,87.06
2023-03-06T00:10:34.533Z,87.29
2023-03-06T00:13:23.362Z,87.24
2023-03-06T00:16:03.394Z,87.63
2023-03-06T00:18:57.356Z,87.43
2023-03-06T00:21:54.372Z,87.40
2023-03-06T00:24:41.363Z,87.32
2023-03-06T00:27:16.481Z,87.65
2023-03-06T00:30:04.350Z,87.12
2023-03-06T00:32:51.331Z,87.38
2023-03-06T00:35:45.405Z,87.49
2023-03-06T00:38:42.361Z,87.46
2023-03-06T00:41:29.360Z,87.94
2023-03-06T00:44:02.451Z,88.02
2023-03-06T00:46:49.369Z,87.53
2023-03-06T00:49:36.372Z,87.69
2023-03-06T00:52:23.337Z,88.39
2023-03-06T00:55:03.384Z,88.28
2023-03-06T00:57:50.363Z,88.32
2023-03-06T01:00:25.074Z,88.87
2023-03-06T01:03:11.372Z,88.65
2023-03-06T01:05:44.554Z,88.66
2023-03-06T01:08:31.364Z,89.33
2023-03-06T01:11:04.459Z,89.46
2023-03-06T01:13:51.388Z,89.80
2023-03-06T01:16:25.516Z,89.71
2023-03-06T01:19:12.377Z,89.29
2023-03-06T01:21:52.381Z,89.25
2023-03-06T01:24:46.361Z,89.41
2023-03-06T01:27:40.359Z,89.27
2023-03-06T01:30:34.356Z,88.97
2023-03-06T01:33:21.378Z,89.07
2023-03-06T01:35:54.454Z,88.95
2023-03-06T01:38:42.395Z,88.94
2023-03-06T01:41:16.072Z,88.91
2023-03-06T01:44:02.399Z,88.73
2023-03-06T01:46:38.009Z,88.54
2023-03-06T01:49:53.451Z,88.71
2023-03-06T01:52:48.393Z,88.66
2023-03-06T01:55:33.384Z,88.67
2023-03-06T01:58:31.398Z,88.56
2023-03-06T02:01:22.432Z,89.19
2023-03-06T02:03:56.475Z,89.17
2023-03-06T02:06:45.402Z,89.54
2023-03-06T02:09:20.548Z,89.46
2023-03-06T02:12:09.397Z,89.44
2023-03-06T02:14:50.403Z,89.38
2023-03-06T02:17:44.404Z,89.47
2023-03-06T02:20:37.392Z,89.68
2023-03-06T02:23:16.532Z,89.70
2023-03-06T02:26:05.422Z,89.60
2023-03-06T02:28:39.939Z,89.75
2023-03-06T02:31:33.399Z,89.91
2023-03-06T02:34:29.677Z,90.16
2023-03-06T02:37:17.408Z,90.18
2023-03-06T02:40:06.406Z,90.26
2023-03-06T02:42:56.400Z,90.31
2023-03-06T02:45:56.451Z,90.43
2023-03-06T02:48:50.395Z,90.69
2023-03-06T02:51:37.416Z,90.93
2023-03-06T02:54:17.397Z,91.21
2023-03-06T02:57:11.417Z,91.73
2023-03-06T02:59:58.402Z,91.30
2023-03-06T03:02:38.399Z,91.61
2023-03-06T03:05:25.405Z,91.79
2023-03-06T03:08:05.400Z,91.96
2023-03-06T03:10:59.413Z,91.98
2023-03-06T03:13:46.397Z,91.56
2023-03-06T03:16:21.589Z,91.58
2023-03-06T03:19:08.417Z,91.81
2023-03-06T03:21:42.565Z,91.89
2023-03-06T03:24:29.471Z,91.74
2023-03-06T03:27:09.407Z,91.88
2023-03-06T03:29:56.415Z,91.93
2023-03-06T03:32:30.545Z,92.12
2023-03-06T03:35:18.405Z,92.21
2023-03-06T03:37:52.649Z,92.32
2023-03-06T03:40:39.442Z,92.44
2023-03-06T03:43:19.440Z,92.75
2023-03-06T03:46:06.479Z,93.03
2023-03-06T03:48:46.478Z,92.80
2023-03-06T03:51:33.428Z,92.98
2023-03-06T03:54:13.424Z,92.77
2023-03-06T03:57:00.440Z,93.04
2023-03-06T03:59:33.692Z,92.90
2023-03-06T04:02:21.497Z,92.86
2023-03-06T04:05:02.663Z,92.78
2023-03-06T04:11:03.429Z,93.13
2023-03-06T04:13:43.530Z,92.99
2023-03-06T04:16:23.492Z,92.68
2023-03-06T04:19:03.581Z,93.42
2023-03-06T04:21:43.440Z,93.17
2023-03-06T04:24:23.418Z,93.10
2023-03-06T04:27:03.426Z,93.83
2023-03-06T04:29:57.450Z,93.46
2023-03-06T04:32:44.471Z,94.07
2023-03-06T04:35:17.566Z,94.42
2023-03-06T04:38:05.429Z,93.91
2023-03-06T04:40:47.465Z,94.00
2023-03-06T04:43:41.404Z,94.73
2023-03-06T04:46:28.444Z,95.01
2023-03-06T04:49:01.591Z,95.35
2023-03-06T04:51:48.462Z,95.51
2023-03-06T04:54:28.507Z,95.22
2023-03-06T04:57:23.448Z,95.73
2023-03-06T05:00:18.461Z,95.88
2023-03-06T05:02:59.434Z,96.05
2023-03-06T05:05:54.439Z,96.41
2023-03-06T05:08:48.464Z,96.39
2023-03-06T05:11:35.437Z,96.68
2023-03-06T05:14:08.576Z,96.69
2023-03-06T05:16:55.443Z,97.24
2023-03-06T05:19:28.574Z,97.13
2023-03-06T05:22:15.447Z,97.45
2023-03-06T05:24:48.548Z,97.30
2023-03-06T05:27:35.457Z,97.58
2023-03-06T05:30:15.451Z,97.62
2023-03-06T05:33:02.469Z,97.87
2023-03-06T05:35:35.612Z,98.12
2023-03-06T05:38:23.460Z,98.01
2023-03-06T05:40:56.562Z,98.22
2023-03-06T05:43:43.460Z,98.40
2023-03-06T05:46:24.465Z,98.49
2023-03-06T05:49:18.451Z,98.69
2023-03-06T05:52:12.443Z,98.49
2023-03-06T05:55:00.465Z,98.75
2023-03-06T05:57:40.458Z,98.54
2023-03-06T06:00:28.478Z,98.44
2023-03-06T06:03:08.509Z,98.82
2023-03-06T06:06:02.469Z,98.37
2023-03-06T06:08:49.472Z,98.02
2023-03-06T06:11:22.542Z,96.88
2023-03-06T06:14:09.556Z,96.61
2023-03-06T06:16:42.506Z,95.91
2023-03-06T06:19:29.555Z,95.39
2023-03-06T06:22:05.364Z,94.64
2023-03-06T06:24:52.458Z,93.20
2023-03-06T06:27:25.567Z,93.38
2023-03-06T06:30:14.479Z,93.07
2023-03-06T06:32:47.967Z,92.63
2023-03-06T06:35:34.495Z,92.16
2023-03-06T06:38:07.620Z,92.30
2023-03-06T06:41:29.162Z,91.69
2023-03-06T06:43:54.564Z,91.40
2023-03-06T06:49:35.578Z,90.76
2023-03-06T06:52:22.535Z,90.35
2023-03-06T06:54:55.745Z,90.82
2023-03-06T06:57:42.483Z,89.86
2023-03-06T07:00:19.589Z,90.01
2023-03-06T07:03:06.503Z,89.42
2023-03-06T07:05:39.650Z,88.54
2023-03-06T07:08:26.478Z,87.66
2023-03-06T07:11:06.489Z,88.83
2023-03-06T07:14:02.513Z,88.20
2023-03-06T07:16:49.554Z,87.19
2023-03-06T07:19:22.603Z,87.57
2023-03-06T07:22:10.488Z,87.35
2023-03-06T07:24:50.490Z,86.65
2023-03-06T07:27:37.495Z,86.62
2023-03-06T07:30:11.592Z,86.09
2023-03-06T07:33:03.485Z,85.85
2023-03-06T07:35:36.618Z,86.35
2023-03-06T07:38:23.486Z,85.97
2023-03-06T07:40:57.596Z,85.87
2023-03-06T07:43:38.499Z,85.37
2023-03-06T07:46:19.639Z,84.44
2023-03-06T07:48:59.486Z,84.47
2023-03-06T07:51:46.505Z,84.13
2023-03-06T07:54:33.502Z,83.00
2023-03-06T07:57:06.599Z,83.01
2023-03-06T07:59:53.503Z,83.02
2023-03-06T08:02:26.597Z,82.13
2023-03-06T08:05:14.508Z,81.79
2023-03-06T08:07:48.594Z,82.00
2023-03-06T08:10:35.524Z,80.43
2023-03-06T08:13:08.608Z,81.50
2023-03-06T08:15:55.573Z,77.53
2023-03-06T08:18:28.628Z,78.88
2023-03-06T08:21:18.492Z,78.98
2023-03-06T08:23:59.498Z,78.95
2023-03-06T08:26:46.499Z,77.45
2023-03-06T08:29:26.508Z,77.20
2023-03-06T08:32:20.566Z,74.96
2023-03-06T08:35:09.534Z,76.42
2023-03-06T08:37:42.665Z,76.76
2023-03-06T08:40:29.535Z,76.87
2023-03-06T08:43:02.607Z,77.05
2023-03-06T08:45:49.532Z,75.98
2023-03-06T08:48:22.620Z,75.92
2023-03-06T08:51:09.522Z,75.90
2023-03-06T08:53:44.340Z,75.93
2023-03-06T08:56:37.524Z,75.87
2023-03-06T08:59:13.441Z,76.47
2023-03-06T09:02:00.596Z,73.69
2023-03-06T09:04:43.510Z,75.39
2023-03-06T09:07:37.459Z,72.30
2023-03-06T09:10:27.553Z,70.61
2023-03-06T09:13:01.696Z,72.50
2023-03-06T09:15:48.573Z,72.33
2023-03-06T09:18:21.622Z,71.26
2023-03-06T09:21:08.579Z,69.73
2023-03-06T09:23:42.645Z,71.34
2023-03-06T09:26:43.424Z,70.38
2023-03-06T09:29:25.542Z,70.81
2023-03-06T09:32:19.570Z,70.75
2023-03-06T09:35:07.543Z,70.59
2023-03-06T09:37:40.957Z,69.74
2023-03-06T09:43:55.550Z,68.18
2023-03-06T09:47:05.568Z,67.28
2023-03-06T09:50:43.540Z,66.44
2023-03-06T09:53:36.553Z,66.48
2023-03-06T09:56:19.634Z,67.60
2023-03-06T09:59:17.522Z,66.57
2023-03-06T10:02:05.616Z,66.78
2023-03-06T10:04:58.584Z,66.69
2023-03-06T10:08:15.555Z,67.27
2023-03-06T10:11:34.566Z,66.04
2023-03-06T10:14:18.655Z,66.05
2023-03-06T10:17:05.563Z,65.76
2023-03-06T10:19:51.558Z,65.94
2023-03-06T10:22:52.558Z,65.77
2023-03-06T10:26:12.587Z,65.42
2023-03-06T10:29:04.642Z,66.83
2023-03-06T10:31:47.547Z,66.16
2023-03-06T10:34:39.553Z,65.72
2023-03-06T10:37:23.685Z,66.10
2023-03-06T10:40:22.597Z,65.69
2023-03-06T10:43:10.649Z,65.11
2023-03-06T10:45:59.653Z,65.94
2023-03-06T10:48:44.565Z,64.29
2023-03-06T10:51:40.554Z,63.92
2023-03-06T10:54:27.568Z,61.30
2023-03-06T10:57:07.573Z,63.26
2023-03-06T11:00:07.594Z,61.71
2023-03-06T11:03:28.567Z,59.70
2023-03-06T11:06:28.575Z,60.32
2023-03-06T11:09:30.584Z,58.33
2023-03-06T11:12:35.581Z,60.53
2023-03-06T11:15:29.592Z,60.17
2023-03-06T11:18:16.588Z,58.63
2023-03-06T11:20:53.287Z,57.86
2023-03-06T11:23:50.580Z,59.79
2023-03-06T11:26:23.980Z,60.75
2023-03-06T11:29:50.579Z,56.59
2023-03-06T11:33:00.586Z,57.14
2023-03-06T11:36:05.690Z,56.55
2023-03-06T11:39:04.591Z,55.68
2023-03-06T11:42:02.580Z,54.86
2023-03-06T11:44:53.590Z,56.24
2023-03-06T11:47:59.577Z,54.80
2023-03-06T11:50:47.598Z,56.65
2023-03-06T11:53:44.590Z,56.45
2023-03-06T11:56:26.687Z,55.74
2023-03-06T11:59:52.594Z,55.40
2023-03-06T12:02:35.857Z,56.43
2023-03-06T12:05:57.646Z,56.42
2023-03-06T12:08:59.587Z,57.72
2023-03-06T12:12:11.662Z,56.12
2023-03-06T12:15:27.595Z,55.77
2023-03-06T12:18:36.628Z,54.76
2023-03-06T12:21:42.585Z,57.22
2023-03-06T12:24:51.609Z,56.10
2023-03-06T12:27:48.719Z,55.74
2023-03-06T12:31:10.610Z,54.43
2023-03-06T12:34:19.591Z,56.30
2023-03-06T12:37:22.613Z,55.77
2023-03-06T12:40:30.595Z,56.87
2023-03-06T12:43:40.712Z,56.49
2023-03-06T12:46:30.617Z,57.30
2023-03-06T12:49:30.026Z,56.60
2023-03-06T12:52:38.609Z,56.70
2023-03-06T12:55:26.594Z,59.03
2023-03-06T12:57:59.733Z,59.02
2023-03-06T13:00:49.887Z,59.24
2023-03-06T13:03:36.551Z,59.25
2023-03-06T13:07:00.606Z,59.25
2023-03-06T13:09:53.640Z,59.96
2023-03-06T13:13:07.626Z,61.59
2023-03-06T13:16:18.724Z,62.70
2023-03-06T13:19:16.614Z,62.21
2023-03-06T13:22:03.749Z,62.58
2023-03-06T13:24:43.946Z,62.82
2023-03-06T13:28:13.641Z,63.50
2023-03-06T13:30:53.371Z,63.66
2023-03-06T13:33:40.615Z,64.68
2023-03-06T13:36:38.341Z,64.84
2023-03-06T13:39:26.626Z,65.46
2023-03-06T13:42:13.657Z,65.85
2023-03-06T13:45:09.631Z,66.61
2023-03-06T13:48:33.689Z,66.33
2023-03-06T13:51:34.639Z,67.16
2023-03-06T13:54:23.796Z,67.56
2023-03-06T13:57:35.648Z,67.54
2023-03-06T14:00:59.666Z,67.65
2023-03-06T14:04:03.726Z,69.14
2023-03-06T14:07:07.635Z,69.98
2023-03-06T14:09:56.646Z,70.25
2023-03-06T14:13:02.627Z,70.82
2023-03-06T14:15:55.661Z,71.06
2023-03-06T14:18:32.748Z,69.28
2023-03-06T14:21:22.654Z,67.43
2023-03-06T14:24:05.741Z,68.25
2023-03-06T14:26:57.661Z,67.32
2023-03-06T14:29:41.684Z,67.84
2023-03-06T14:32:35.695Z,67.78
2023-03-06T14:35:38.645Z,68.00
2023-03-06T14:38:12.754Z,68.01
2023-03-06T14:40:59.671Z,69.24
2023-03-06T14:43:33.829Z,69.25
2023-03-06T14:46:26.710Z,69.58
2023-03-06T14:48:59.772Z,69.54
2023-03-06T14:52:06.660Z,70.17
2023-03-06T14:54:55.651Z,70.50
2023-03-06T14:57:36.664Z,70.34
2023-03-06T15:00:27.749Z,71.07
2023-03-06T15:03:01.776Z,71.16
2023-03-06T15:05:51.682Z,71.32
2023-03-06T15:08:38.672Z,71.86
2023-03-06T15:11:32.664Z,71.84
2023-03-06T15:14:32.678Z,72.18
2023-03-06T15:17:25.657Z,72.27
2023-03-06T15:20:01.795Z,72.45
2023-03-06T15:22:48.675Z,73.10
2023-03-06T15:25:34.676Z,73.53
2023-03-06T15:28:54.296Z,74.18
2023-03-06T15:31:38.713Z,74.55
2023-03-06T15:34:24.666Z,75.16
2023-03-06T15:37:02.746Z,75.54
2023-03-06T15:39:49.681Z,76.27
2023-03-06T15:42:29.673Z,75.90
2023-03-06T15:45:24.713Z,76.93
2023-03-06T15:48:06.699Z,77.08
2023-03-06T15:51:00.667Z,77.79
2023-03-06T15:53:47.692Z,78.13
2023-03-06T15:56:27.705Z,78.23
2023-03-06T15:59:27.693Z,78.82
2023-03-06T16:02:32.926Z,79.41
2023-03-06T16:05:12.741Z,79.20
2023-03-06T16:07:59.689Z,79.83
2023-03-06T16:10:35.916Z,79.84
2023-03-06T16:13:29.698Z,79.71
2023-03-06T16:16:03.164Z,79.55
2023-03-06T16:18:49.694Z,80.14
2023-03-06T16:21:29.705Z,79.96
2023-03-06T16:24:24.693Z,80.52
2023-03-06T16:27:13.686Z,80.61
2023-03-06T16:29:46.818Z,80.62
2023-03-06T16:32:33.718Z,80.90
2023-03-06T16:35:13.712Z,80.91
2023-03-06T16:38:00.719Z,81.33
2023-03-06T16:40:47.698Z,81.53
2023-03-06T16:43:41.734Z,81.97
2023-03-06T16:46:30.840Z,81.75
2023-03-06T16:49:03.794Z,81.86
2023-03-06T16:51:57.717Z,81.92
2023-03-06T16:54:51.725Z,82.46
2023-03-06T16:57:41.729Z,82.69
2023-03-06T17:00:15.953Z,82.51
2023-03-06T17:03:02.726Z,82.82
2023-03-06T17:05:38.820Z,83.21
2023-03-06T17:08:25.695Z,83.55
2023-03-06T17:11:05.722Z,83.30
2023-03-06T17:14:01.700Z,83.56
2023-03-06T17:16:55.754Z,83.62
2023-03-06T17:19:42.737Z,83.93
2023-03-06T17:22:17.854Z,84.37
2023-03-06T17:25:04.730Z,84.55
2023-03-06T17:27:44.721Z,84.49
2023-03-06T17:30:31.813Z,84.75
2023-03-06T17:33:04.816Z,84.55
2023-03-06T17:35:51.792Z,84.64
2023-03-06T17:38:24.846Z,84.86
2023-03-06T17:41:12.718Z,85.39
2023-03-06T17:43:46.831Z,85.07
2023-03-06T17:46:33.754Z,85.34
2023-03-06T17:49:06.862Z,85.26
2023-03-06T17:51:53.734Z,85.57
2023-03-06T17:54:29.958Z,85.48
2023-03-06T17:57:16.723Z,85.56
2023-03-06T17:59:49.832Z,85.87
2023-03-06T18:02:36.742Z,86.29
2023-03-06T18:05:10.920Z,86.50
2023-03-06T18:07:57.709Z,86.58
2023-03-06T18:10:31.985Z,86.53
2023-03-06T18:13:18.708Z,86.82
2023-03-06T18:15:51.939Z,87.15
2023-03-06T18:18:38.732Z,87.26
2023-03-06T18:21:16.838Z,87.70
2023-03-06T18:24:06.730Z,87.82
2023-03-06T18:26:39.914Z,87.42
2023-03-06T18:29:26.739Z,87.56
2023-03-06T18:31:59.928Z,87.38
2023-03-06T18:34:46.765Z,88.11
2023-03-06T18:37:19.917Z,88.26
2023-03-06T18:40:06.737Z,88.06
2023-03-06T18:42:39.898Z,87.85
2023-03-06T18:45:26.775Z,88.14
2023-03-06T18:48:00.850Z,88.21
2023-03-06T18:50:54.743Z,88.41
2023-03-06T18:53:49.764Z,88.27
2023-03-06T18:56:36.785Z,88.05
2023-03-06T18:59:14.550Z,88.69
2023-03-06T19:02:03.748Z,88.11
2023-03-06T19:04:37.884Z,88.07
2023-03-06T19:07:24.793Z,88.06
2023-03-06T19:09:57.914Z,88.27
2023-03-06T19:12:44.759Z,88.25
2023-03-06T19:15:17.969Z,88.12
2023-03-06T19:18:05.746Z,88.27
2023-03-06T19:20:38.924Z,88.13
2023-03-06T19:23:26.767Z,88.23
2023-03-06T19:26:10.784Z,87.93
2023-03-06T19:28:58.784Z,88.35
2023-03-06T19:31:33.886Z,88.15
2023-03-06T19:34:20.774Z,88.67
2023-03-06T19:36:56.943Z,88.67
2023-03-06T19:39:43.781Z,88.59
2023-03-06T19:42:23.781Z,88.73
2023-03-06T19:45:11.776Z,89.24
2023-03-06T19:47:51.767Z,89.31
2023-03-06T19:50:45.755Z,89.53
2023-03-06T19:53:40.822Z,89.74
2023-03-06T19:56:32.781Z,89.93
2023-03-06T19:59:05.934Z,89.75
2023-03-06T20:01:52.790Z,90.05
2023-03-06T20:04:32.813Z,89.95
2023-03-06T20:07:26.812Z,90.39
2023-03-06T20:10:22.258Z,90.58
2023-03-06T20:13:11.920Z,90.83
2023-03-06T20:15:52.922Z,90.79
2023-03-06T20:18:39.793Z,91.10
2023-03-06T20:21:19.817Z,91.16
2023-03-06T20:24:13.810Z,91.51
2023-03-06T20:27:03.788Z,91.85
2023-03-06T20:29:36.851Z,91.66
2023-03-06T20:32:23.832Z,91.95
2023-03-06T20:34:56.877Z,91.92
2023-03-06T20:37:44.846Z,92.16
2023-03-06T20:40:20.519Z,92.04
2023-03-06T20:43:27.911Z,92.17
2023-03-06T20:46:15.869Z,92.14
2023-03-06T20:49:22.170Z,92.51
2023-03-06T20:52:22.238Z,92.32
2023-03-06T20:55:08.912Z,92.85
2023-03-06T20:57:43.261Z,92.97
2023-03-06T21:00:32.889Z,92.90
2023-03-06T21:03:12.898Z,92.83
2023-03-06T21:06:03.116Z,93.13
2023-03-06T21:08:38.036Z,93.42
2023-03-06T21:11:24.946Z,93.29
2023-03-06T21:14:09.235Z,93.54
2023-03-06T21:17:00.900Z,93.68
2023-03-06T21:19:55.485Z,93.76
2023-03-06T21:22:45.160Z,93.75
2023-03-06T21:25:29.042Z,93.77
2023-03-06T21:28:26.156Z,94.02
2023-03-06T21:31:21.958Z,93.82
2023-03-06T21:34:17.020Z,94.21
2023-03-06T21:37:04.084Z,94.13
2023-03-06T21:39:38.753Z,94.40
2023-03-06T21:42:26.057Z,94.72
2023-03-06T21:44:59.985Z,94.42
2023-03-06T21:47:47.830Z,94.49
2023-03-06T21:50:29.013Z,94.80
2023-03-06T21:53:23.033Z,95.26
2023-03-06T21:56:11.018Z,94.96
2023-03-06T21:58:45.284Z,95.17
2023-03-06T22:01:33.823Z,95.40
2023-03-06T22:04:13.955Z,95.21
2023-03-06T22:07:08.000Z,95.38
2023-03-06T22:09:55.222Z,95.37
2023-03-06T22:12:28.977Z,95.45
2023-03-06T22:15:16.849Z,95.70
2023-03-06T22:17:50.025Z,95.71
2023-03-06T22:20:36.842Z,95.87
2023-03-06T22:23:10.131Z,96.16
2023-03-06T22:25:56.833Z,96.43
2023-03-06T22:28:36.908Z,96.33
2023-03-06T22:31:26.923Z,96.17
2023-03-06T22:34:08.847Z,96.14
2023-03-06T22:37:02.897Z,96.24
2023-03-06T22:39:49.839Z,96.50
2023-03-06T22:42:22.968Z,96.48
2023-03-06T22:45:09.815Z,96.83
2023-03-06T22:47:43.947Z,96.84
2023-03-06T22:50:30.818Z,96.82
2023-03-06T22:53:03.938Z,96.66
2023-03-06T22:55:50.839Z,96.85
2023-03-06T22:58:24.134Z,96.88
2023-03-06T23:01:12.872Z,97.01
2023-03-06T23:03:48.969Z,97.03
2023-03-06T23:06:40.826Z,97.03
2023-03-06T23:09:21.454Z,97.10
2023-03-06T23:12:07.847Z,97.67
2023-03-06T23:14:41.042Z,97.43
2023-03-06T23:17:27.843Z,97.22
2023-03-06T23:20:07.828Z,97.34
2023-03-06T23:23:01.839Z,97.40
2023-03-06T23:25:49.879Z,97.40
2023-03-06T23:28:22.955Z,97.41
2023-03-06T23:31:21.951Z,97.40
2023-03-06T23:33:55.074Z,97.21
2023-03-06T23:36:41.851Z,97.34
2023-03-06T23:39:22.839Z,97.52
2023-03-06T23:42:09.864Z,97.60
2023-03-06T23:44:42.938Z,97.63
2023-03-06T23:47:29.856Z,97.65
2023-03-06T23:50:09.862Z,97.67
2023-03-06T23:53:07.890Z,97.94
2023-03-06T23:55:56.878Z,97.73
2023-03-06T23:58:29.973Z,97.89
